sensor_id;sensor_type;location;lat;lon;timestamp;pressure;altitude;pressure_sealevel;temperature;humidity
163;BME280;3946;48.958;8.284;2023-05-14T00:02:48;100500.66;;;11.67;100.00
163;BME280;3946;48.958;8.284;2023-05-14T00:05:33;100497.44;;;11.64;100.00
163;BME280;3946;48.958;8.284;2023-05-14T00:08:20;100495.78;;;11.63;100.00
163;BME280;3946;48.958;8.284;2023-05-14T00:11:08;100488.69;;;12.17;100.00
163;BME280;3946;48.958;8.284;2023-05-14T00:13:55;100486.59;;;11.84;100.00
163;BME280;3946;48.958;8.284;2023-05-14T00:16:43;100482.69;;;11.64;100.00
163;BME280;3946;48.958;8.284;2023-05-14T00:19:29;100487.63;;;11.54;100.00
163;BME280;3946;48.958;8.284;2023-05-14T00:22:14;100480.59;;;11.69;100.00
163;BME280;3946;48.958;8.284;2023-05-14T00:24:59;100472.94;;;11.68;100.00
163;BME280;3946;48.958;8.284;2023-05-14T00:27:44;100475.84;;;11.63;100.00
163;BME280;3946;48.958;8.284;2023-05-14T00:30:32;100473.72;;;12.08;100.00
163;BME280;3946;48.958;8.284;2023-05-14T00:33:17;100471.63;;;11.87;100.00
163;BME280;3946;48.958;8.284;2023-05-14T00:36:04;100464.28;;;11.81;100.00
163;BME280;3946;48.958;8.284;2023-05-14T00:38:49;100468.31;;;11.85;100.00
163;BME280;3946;48.958;8.284;2023-05-14T00:41:34;100464.81;;;11.99;100.00
163;BME280;3946;48.958;8.284;2023-05-14T00:44:19;100461.22;;;12.38;100.00
163;BME280;3946;48.958;8.284;2023-05-14T00:47:03;100463.84;;;12.25;100.00
163;BME280;3946;48.958;8.284;2023-05-14T00:49:51;100455.22;;;12.25;100.00
163;BME280;3946;48.958;8.284;2023-05-14T00:52:38;100455.13;;;12.26;100.00
163;BME280;3946;48.958;8.284;2023-05-14T00:55:24;100460.28;;;12.39;100.00
163;BME280;3946;48.958;8.284;2023-05-14T00:58:10;100457.69;;;12.39;100.00
163;BME280;3946;48.958;8.284;2023-05-14T01:00:56;100452.59;;;12.38;100.00
163;BME280;3946;48.958;8.284;2023-05-14T01:03:41;100453.53;;;12.49;100.00
163;BME280;3946;48.958;8.284;2023-05-14T01:06:31;100452.34;;;12.66;100.00
163;BME280;3946;48.958;8.284;2023-05-14T01:09:21;100447.06;;;12.55;100.00
163;BME280;3946;48.958;8.284;2023-05-14T01:12:10;100452.75;;;12.60;100.00
163;BME280;3946;48.958;8.284;2023-05-14T01:15:03;100430.63;;;12.54;100.00
163;BME280;3946;48.958;8.284;2023-05-14T01:17:50;100453.28;;;12.65;100.00
163;BME280;3946;48.958;8.284;2023-05-14T01:20:37;100450.78;;;12.51;100.00
163;BME280;3946;48.958;8.284;2023-05-14T01:23:23;100451.38;;;12.67;100.00
163;BME280;3946;48.958;8.284;2023-05-14T01:26:08;100447.56;;;12.60;100.00
163;BME280;3946;48.958;8.284;2023-05-14T01:28:53;100452.75;;;12.60;100.00
163;BME280;3946;48.958;8.284;2023-05-14T01:31:39;100437.78;;;12.64;100.00
163;BME280;3946;48.958;8.284;2023-05-14T01:34:27;100448.19;;;12.51;100.00
163;BME280;3946;48.958;8.284;2023-05-14T01:37:13;100448.91;;;12.66;100.00
163;BME280;3946;48.958;8.284;2023-05-14T01:40:00;100451.50;;;12.66;100.00
163;BME280;3946;48.958;8.284;2023-05-14T01:42:46;100441.69;;;12.45;100.00
163;BME280;3946;48.958;8.284;2023-05-14T01:45:33;100449.19;;;12.74;100.00
163;BME280;3946;48.958;8.284;2023-05-14T01:48:18;100448.78;;;12.67;100.00
163;BME280;3946;48.958;8.284;2023-05-14T01:51:03;100446.63;;;12.85;100.00
163;BME280;3946;48.958;8.284;2023-05-14T01:53:48;100446.16;;;12.80;100.00
163;BME280;3946;48.958;8.284;2023-05-14T01:56:35;100448.41;;;12.84;100.00
163;BME280;3946;48.958;8.284;2023-05-14T01:59:20;100447.19;;;12.77;100.00
163;BME280;3946;48.958;8.284;2023-05-14T02:02:06;100453.56;;;12.73;100.00
163;BME280;3946;48.958;8.284;2023-05-14T02:04:52;100453.72;;;12.83;100.00
163;BME280;3946;48.958;8.284;2023-05-14T02:07:37;100442.88;;;12.65;100.00
163;BME280;3946;48.958;8.284;2023-05-14T02:10:23;100444.41;;;12.68;100.00
163;BME280;3946;48.958;8.284;2023-05-14T02:13:09;100443.63;;;12.54;100.00
163;BME280;3946;48.958;8.284;2023-05-14T02:15:54;100445.28;;;12.55;100.00
163;BME280;3946;48.958;8.284;2023-05-14T02:18:39;100438.50;;;12.66;100.00
163;BME280;3946;48.958;8.284;2023-05-14T02:21:24;100449.97;;;12.63;100.00
163;BME280;3946;48.958;8.284;2023-05-14T02:24:09;100443.97;;;12.50;100.00
163;BME280;3946;48.958;8.284;2023-05-14T02:26:54;100439.03;;;12.58;100.00
163;BME280;3946;48.958;8.284;2023-05-14T02:29:41;100441.78;;;12.44;100.00
163;BME280;3946;48.958;8.284;2023-05-14T02:32:26;100440.53;;;12.37;100.00
163;BME280;3946;48.958;8.284;2023-05-14T02:35:11;100445.66;;;12.25;100.00
163;BME280;3946;48.958;8.284;2023-05-14T02:37:56;100454.16;;;12.40;100.00
163;BME280;3946;48.958;8.284;2023-05-14T02:40:42;100453.63;;;12.35;100.00
163;BME280;3946;48.958;8.284;2023-05-14T02:43:28;100457.06;;;12.48;100.00
163;BME280;3946;48.958;8.284;2023-05-14T02:46:15;100449.78;;;12.41;100.00
163;BME280;3946;48.958;8.284;2023-05-14T02:49:00;100449.97;;;12.50;100.00
163;BME280;3946;48.958;8.284;2023-05-14T02:51:46;100450.94;;;12.49;100.00
163;BME280;3946;48.958;8.284;2023-05-14T02:54:31;100454.31;;;12.63;100.00
163;BME280;3946;48.958;8.284;2023-05-14T02:57:15;100453.75;;;12.46;100.00
163;BME280;3946;48.958;8.284;2023-05-14T03:00:00;100450.50;;;12.43;100.00
163;BME280;3946;48.958;8.284;2023-05-14T03:02:47;100451.56;;;12.40;100.00
163;BME280;3946;48.958;8.284;2023-05-14T03:05:32;100444.56;;;12.53;100.00
163;BME280;3946;48.958;8.284;2023-05-14T03:08:17;100443.41;;;12.57;100.00
163;BME280;3946;48.958;8.284;2023-05-14T03:11:03;100438.50;;;12.66;100.00
163;BME280;3946;48.958;8.284;2023-05-14T03:13:49;100439.66;;;12.61;100.00
163;BME280;3946;48.958;8.284;2023-05-14T03:16:34;100437.38;;;12.57;100.00
163;BME280;3946;48.958;8.284;2023-05-14T03:19:20;100433.41;;;12.64;100.00
163;BME280;3946;48.958;8.284;2023-05-14T03:22:05;100435.34;;;12.73;100.00
163;BME280;3946;48.958;8.284;2023-05-14T03:24:50;100437.91;;;12.62;100.00
163;BME280;3946;48.958;8.284;2023-05-14T03:27:35;100434.78;;;12.57;100.00
163;BME280;3946;48.958;8.284;2023-05-14T03:30:20;100438.72;;;12.63;100.00
163;BME280;3946;48.958;8.284;2023-05-14T03:33:05;100433.84;;;12.58;100.00
163;BME280;3946;48.958;8.284;2023-05-14T03:35:51;100438.38;;;12.67;100.00
163;BME280;3946;48.958;8.284;2023-05-14T03:38:38;100434.72;;;12.70;100.00
163;BME280;3946;48.958;8.284;2023-05-14T03:41:23;100442.53;;;12.70;100.00
163;BME280;3946;48.958;8.284;2023-05-14T03:44:09;100437.84;;;12.75;100.00
163;BME280;3946;48.958;8.284;2023-05-14T03:46:54;100442.53;;;12.70;100.00
163;BME280;3946;48.958;8.284;2023-05-14T03:49:39;100435.34;;;12.73;100.00
163;BME280;3946;48.958;8.284;2023-05-14T03:52:28;100439.50;;;12.76;100.00
163;BME280;3946;48.958;8.284;2023-05-14T03:55:13;100435.19;;;12.64;100.00
163;BME280;3946;48.958;8.284;2023-05-14T03:58:00;100433.78;;;12.71;100.00
163;BME280;3946;48.958;8.284;2023-05-14T04:00:45;100428.19;;;12.77;100.00
163;BME280;3946;48.958;8.284;2023-05-14T04:03:30;100432.03;;;12.71;100.00
163;BME280;3946;48.958;8.284;2023-05-14T04:06:15;100433.19;;;12.67;100.00
163;BME280;3946;48.958;8.284;2023-05-14T04:09:01;100427.50;;;12.62;100.00
163;BME280;3946;48.958;8.284;2023-05-14T04:11:46;100433.63;;;12.61;100.00
163;BME280;3946;48.958;8.284;2023-05-14T04:14:31;100438.00;;;12.60;100.00
163;BME280;3946;48.958;8.284;2023-05-14T04:17:16;100437.28;;;12.58;100.00
163;BME280;3946;48.958;8.284;2023-05-14T04:20:01;100437.69;;;12.52;100.00
163;BME280;3946;48.958;8.284;2023-05-14T04:22:47;100437.72;;;12.40;100.00
163;BME280;3946;48.958;8.284;2023-05-14T04:25:33;100442.53;;;12.33;100.00
163;BME280;3946;48.958;8.284;2023-05-14T04:28:18;100443.38;;;12.34;100.00
163;BME280;3946;48.958;8.284;2023-05-14T04:31:03;100443.03;;;12.38;100.00
163;BME280;3946;48.958;8.284;2023-05-14T04:33:48;100447.19;;;12.41;100.00
163;BME280;3946;48.958;8.284;2023-05-14T04:36:33;100445.53;;;12.40;100.00
163;BME280;3946;48.958;8.284;2023-05-14T04:39:18;100450.09;;;12.36;100.00
163;BME280;3946;48.958;8.284;2023-05-14T04:42:05;100449.78;;;12.41;100.00
163;BME280;3946;48.958;8.284;2023-05-14T04:44:50;100450.75;;;12.27;100.00
163;BME280;3946;48.958;8.284;2023-05-14T04:47:35;100445.34;;;12.30;100.00
163;BME280;3946;48.958;8.284;2023-05-14T04:50:20;100453.34;;;12.27;100.00
163;BME280;3946;48.958;8.284;2023-05-14T04:53:05;100449.72;;;12.30;100.00
163;BME280;3946;48.958;8.284;2023-05-14T04:55:50;100445.97;;;12.34;100.00
163;BME280;3946;48.958;8.284;2023-05-14T04:58:38;100456.97;;;12.37;100.00
163;BME280;3946;48.958;8.284;2023-05-14T05:01:23;100461.56;;;12.34;100.00
163;BME280;3946;48.958;8.284;2023-05-14T05:04:11;100458.22;;;12.44;100.00
163;BME280;3946;48.958;8.284;2023-05-14T05:06:56;100454.88;;;12.42;100.00
163;BME280;3946;48.958;8.284;2023-05-14T05:09:41;100452.56;;;12.50;100.00
163;BME280;3946;48.958;8.284;2023-05-14T05:12:26;100447.59;;;12.47;100.00
163;BME280;3946;48.958;8.284;2023-05-14T05:15:14;100449.25;;;12.48;100.00
163;BME280;3946;48.958;8.284;2023-05-14T05:17:59;100449.69;;;12.42;100.00
163;BME280;3946;48.958;8.284;2023-05-14T05:20:44;100448.19;;;12.64;100.00
163;BME280;3946;48.958;8.284;2023-05-14T05:23:29;100452.75;;;12.60;100.00
163;BME280;3946;48.958;8.284;2023-05-14T05:26:14;100451.72;;;12.63;100.00
163;BME280;3946;48.958;8.284;2023-05-14T05:28:59;100453.81;;;12.57;100.00
163;BME280;3946;48.958;8.284;2023-05-14T05:31:46;100457.81;;;12.74;100.00
163;BME280;3946;48.958;8.284;2023-05-14T05:34:31;100446.81;;;12.94;99.27
163;BME280;3946;48.958;8.284;2023-05-14T05:37:16;100441.22;;;13.36;96.66
163;BME280;3946;48.958;8.284;2023-05-14T05:40:02;100447.53;;;13.44;94.81
163;BME280;3946;48.958;8.284;2023-05-14T05:42:48;100440.59;;;13.56;93.52
163;BME280;3946;48.958;8.284;2023-05-14T05:45:33;100442.47;;;13.54;91.66
163;BME280;3946;48.958;8.284;2023-05-14T05:48:20;100436.94;;;13.58;91.67
163;BME280;3946;48.958;8.284;2023-05-14T05:51:05;100439.69;;;13.79;90.29
163;BME280;3946;48.958;8.284;2023-05-14T05:53:50;100439.25;;;14.19;89.28
163;BME280;3946;48.958;8.284;2023-05-14T05:56:35;100424.13;;;14.78;85.62
163;BME280;3946;48.958;8.284;2023-05-14T05:59:20;100428.69;;;14.65;85.30
163;BME280;3946;48.958;8.284;2023-05-14T06:02:05;100422.06;;;14.39;86.36
163;BME280;3946;48.958;8.284;2023-05-14T06:04:51;100426.13;;;14.43;85.46
163;BME280;3946;48.958;8.284;2023-05-14T06:07:36;100417.97;;;14.90;83.26
163;BME280;3946;48.958;8.284;2023-05-14T06:10:22;100425.91;;;14.78;83.38
163;BME280;3946;48.958;8.284;2023-05-14T06:13:06;100396.69;;;15.48;81.34
163;BME280;3946;48.958;8.284;2023-05-14T06:15:51;100394.19;;;15.88;79.30
163;BME280;3946;48.958;8.284;2023-05-14T06:18:36;100392.56;;;15.96;77.89
163;BME280;3946;48.958;8.284;2023-05-14T06:21:22;100411.00;;;15.32;79.13
163;BME280;3946;48.958;8.284;2023-05-14T06:24:08;100410.38;;;15.19;80.04
163;BME280;3946;48.958;8.284;2023-05-14T06:26:53;100416.88;;;14.93;81.07
163;BME280;3946;48.958;8.284;2023-05-14T06:29:37;100426.75;;;15.10;81.88
163;BME280;3946;48.958;8.284;2023-05-14T06:32:23;100413.13;;;15.38;80.79
163;BME280;3946;48.958;8.284;2023-05-14T06:35:08;100397.81;;;15.13;78.91
163;BME280;3946;48.958;8.284;2023-05-14T06:37:55;100406.22;;;15.17;79.20
163;BME280;3946;48.958;8.284;2023-05-14T06:40:40;100405.47;;;15.47;79.60
163;BME280;3946;48.958;8.284;2023-05-14T06:43:25;100379.97;;;15.81;77.47
163;BME280;3946;48.958;8.284;2023-05-14T06:46:10;100384.84;;;15.95;76.97
163;BME280;3946;48.958;8.284;2023-05-14T06:48:55;100399.19;;;16.00;77.69
163;BME280;3946;48.958;8.284;2023-05-14T06:51:40;100388.00;;;16.19;76.69
163;BME280;3946;48.958;8.284;2023-05-14T06:54:26;100362.09;;;16.66;74.79
163;BME280;3946;48.958;8.284;2023-05-14T06:57:11;100349.56;;;16.89;73.62
163;BME280;3946;48.958;8.284;2023-05-14T06:59:56;100344.31;;;17.18;73.05
163;BME280;3946;48.958;8.284;2023-05-14T07:02:41;100356.97;;;16.55;73.03
163;BME280;3946;48.958;8.284;2023-05-14T07:05:26;100349.03;;;16.85;72.83
163;BME280;3946;48.958;8.284;2023-05-14T07:08:10;100349.28;;;16.72;72.68
163;BME280;3946;48.958;8.284;2023-05-14T07:10:57;100360.44;;;16.65;73.24
163;BME280;3946;48.958;8.284;2023-05-14T07:13:42;100361.84;;;16.78;72.62
163;BME280;3946;48.958;8.284;2023-05-14T07:16:27;100338.53;;;16.95;71.50
163;BME280;3946;48.958;8.284;2023-05-14T07:19:12;100338.81;;;17.11;71.57
163;BME280;3946;48.958;8.284;2023-05-14T07:21:56;100351.50;;;17.16;72.29
163;BME280;3946;48.958;8.284;2023-05-14T07:24:42;100329.22;;;17.39;70.86
163;BME280;3946;48.958;8.284;2023-05-14T07:27:28;100333.47;;;17.69;71.10
163;BME280;3946;48.958;8.284;2023-05-14T07:30:13;100321.19;;;17.60;69.92
163;BME280;3946;48.958;8.284;2023-05-14T07:32:58;100324.63;;;17.60;70.42
163;BME280;3946;48.958;8.284;2023-05-14T07:35:43;100333.13;;;17.25;70.57
163;BME280;3946;48.958;8.284;2023-05-14T07:38:29;100328.41;;;17.38;70.87
163;BME280;3946;48.958;8.284;2023-05-14T07:41:14;100348.13;;;17.42;71.55
163;BME280;3946;48.958;8.284;2023-05-14T07:44:00;100345.91;;;17.47;71.97
163;BME280;3946;48.958;8.284;2023-05-14T07:46:45;100338.34;;;17.44;71.90
163;BME280;3946;48.958;8.284;2023-05-14T07:49:30;100334.81;;;17.17;71.61
163;BME280;3946;48.958;8.284;2023-05-14T07:52:15;100341.00;;;17.06;72.21
163;BME280;3946;48.958;8.284;2023-05-14T07:55:01;100333.09;;;17.44;71.75
163;BME280;3946;48.958;8.284;2023-05-14T07:57:46;100317.75;;;17.69;70.75
163;BME280;3946;48.958;8.284;2023-05-14T08:00:32;100326.59;;;17.48;71.54
163;BME280;3946;48.958;8.284;2023-05-14T08:03:18;100310.56;;;17.61;71.23
163;BME280;3946;48.958;8.284;2023-05-14T08:06:03;100300.50;;;17.66;70.23
163;BME280;3946;48.958;8.284;2023-05-14T08:08:48;100302.69;;;17.61;69.98
163;BME280;3946;48.958;8.284;2023-05-14T08:11:32;100289.69;;;18.06;69.89
163;BME280;3946;48.958;8.284;2023-05-14T08:14:17;100288.16;;;18.04;68.54
163;BME280;3946;48.958;8.284;2023-05-14T08:17:05;100299.00;;;17.64;69.91
163;BME280;3946;48.958;8.284;2023-05-14T08:19:50;100297.28;;;17.72;69.33
163;BME280;3946;48.958;8.284;2023-05-14T08:22:35;100313.81;;;17.82;70.54
163;BME280;3946;48.958;8.284;2023-05-14T08:25:20;100323.13;;;17.67;71.08
163;BME280;3946;48.958;8.284;2023-05-14T08:28:05;100297.59;;;17.60;70.38
163;BME280;3946;48.958;8.284;2023-05-14T08:30:51;100314.84;;;17.62;70.82
163;BME280;3946;48.958;8.284;2023-05-14T08:33:37;100282.03;;;17.95;69.25
163;BME280;3946;48.958;8.284;2023-05-14T08:36:22;100268.56;;;18.26;68.56
163;BME280;3946;48.958;8.284;2023-05-14T08:39:07;100260.84;;;18.24;68.11
163;BME280;3946;48.958;8.284;2023-05-14T08:41:52;100264.59;;;18.75;67.76
163;BME280;3946;48.958;8.284;2023-05-14T08:44:42;100277.00;;;18.65;68.60
163;BME280;3946;48.958;8.284;2023-05-14T08:47:30;100248.84;;;18.57;66.83
163;BME280;3946;48.958;8.284;2023-05-14T08:50:17;100243.03;;;18.63;66.42
163;BME280;3946;48.958;8.284;2023-05-14T08:53:02;100231.38;;;19.09;65.90
163;BME280;3946;48.958;8.284;2023-05-14T08:55:47;100214.91;;;18.99;65.20
163;BME280;3946;48.958;8.284;2023-05-14T08:58:34;100205.69;;;18.95;64.88
163;BME280;3946;48.958;8.284;2023-05-14T09:01:19;100203.00;;;19.13;64.45
163;BME280;3946;48.958;8.284;2023-05-14T09:04:04;100194.47;;;19.19;63.77
163;BME280;3946;48.958;8.284;2023-05-14T09:06:53;100181.84;;;19.22;63.09
163;BME280;3946;48.958;8.284;2023-05-14T09:09:38;100183.06;;;19.36;62.84
163;BME280;3946;48.958;8.284;2023-05-14T09:12:24;100181.63;;;19.42;63.00
163;BME280;3946;48.958;8.284;2023-05-14T09:15:09;100180.06;;;19.23;63.29
163;BME280;3946;48.958;8.284;2023-05-14T09:17:55;100128.97;;;19.68;60.70
163;BME280;3946;48.958;8.284;2023-05-14T09:20:40;100158.41;;;19.71;61.76
163;BME280;3946;48.958;8.284;2023-05-14T09:23:28;100115.19;;;20.14;60.14
163;BME280;3946;48.958;8.284;2023-05-14T09:26:15;100147.75;;;20.13;61.07
163;BME280;3946;48.958;8.284;2023-05-14T09:29:01;100096.63;;;19.91;59.25
163;BME280;3946;48.958;8.284;2023-05-14T09:31:46;100129.78;;;19.68;60.42
163;BME280;3946;48.958;8.284;2023-05-14T09:34:32;100129.78;;;19.60;60.55
163;BME280;3946;48.958;8.284;2023-05-14T09:37:17;100134.09;;;19.77;60.32
163;BME280;3946;48.958;8.284;2023-05-14T09:40:06;100121.63;;;19.96;60.00
163;BME280;3946;48.958;8.284;2023-05-14T09:42:51;100097.28;;;20.42;58.86
163;BME280;3946;48.958;8.284;2023-05-14T09:45:36;100130.50;;;20.27;60.08
163;BME280;3946;48.958;8.284;2023-05-14T09:48:21;100121.94;;;19.84;59.38
163;BME280;3946;48.958;8.284;2023-05-14T09:51:08;100091.53;;;19.90;58.47
163;BME280;3946;48.958;8.284;2023-05-14T09:53:53;100135.44;;;20.22;60.02
163;BME280;3946;48.958;8.284;2023-05-14T09:56:40;100130.34;;;20.04;59.37
163;BME280;3946;48.958;8.284;2023-05-14T09:59:25;100113.53;;;19.97;59.34
163;BME280;3946;48.958;8.284;2023-05-14T10:02:12;100101.72;;;20.17;58.89
163;BME280;3946;48.958;8.284;2023-05-14T10:05:00;100104.66;;;20.47;58.60
163;BME280;3946;48.958;8.284;2023-05-14T10:07:46;100101.88;;;19.83;58.30
163;BME280;3946;48.958;8.284;2023-05-14T10:10:32;100097.97;;;20.12;58.61
163;BME280;3946;48.958;8.284;2023-05-14T10:13:21;100129.63;;;19.70;60.17
163;BME280;3946;48.958;8.284;2023-05-14T10:16:10;100161.56;;;19.49;61.28
163;BME280;3946;48.958;8.284;2023-05-14T10:18:59;100160.22;;;19.37;61.54
163;BME280;3946;48.958;8.284;2023-05-14T10:21:47;100136.53;;;19.63;60.33
163;BME280;3946;48.958;8.284;2023-05-14T10:24:32;100146.22;;;19.20;60.77
163;BME280;3946;48.958;8.284;2023-05-14T10:27:18;100184.69;;;18.95;62.61
163;BME280;3946;48.958;8.284;2023-05-14T10:30:08;100185.97;;;18.91;62.80
163;BME280;3946;48.958;8.284;2023-05-14T10:33:05;100190.25;;;19.00;63.19
163;BME280;3946;48.958;8.284;2023-05-14T10:35:51;100158.91;;;19.83;61.73
163;BME280;3946;48.958;8.284;2023-05-14T10:38:39;100111.91;;;20.20;59.78
163;BME280;3946;48.958;8.284;2023-05-14T10:41:24;100117.84;;;20.39;59.88
163;BME280;3946;48.958;8.284;2023-05-14T10:44:09;100070.22;;;20.73;57.84
163;BME280;3946;48.958;8.284;2023-05-14T10:46:56;100052.50;;;20.50;57.44
163;BME280;3946;48.958;8.284;2023-05-14T10:49:41;100067.19;;;20.29;57.76
163;BME280;3946;48.958;8.284;2023-05-14T10:52:26;100069.16;;;20.18;58.14
163;BME280;3946;48.958;8.284;2023-05-14T10:55:11;100087.59;;;20.43;58.49
163;BME280;3946;48.958;8.284;2023-05-14T10:57:57;100077.22;;;20.17;58.03
163;BME280;3946;48.958;8.284;2023-05-14T11:00:46;100049.16;;;20.73;56.86
163;BME280;3946;48.958;8.284;2023-05-14T11:03:37;100039.06;;;20.84;56.65
163;BME280;3946;48.958;8.284;2023-05-14T11:06:22;100081.00;;;20.39;58.32
163;BME280;3946;48.958;8.284;2023-05-14T11:09:09;100074.09;;;20.13;58.37
163;BME280;3946;48.958;8.284;2023-05-14T11:11:56;100095.13;;;20.21;59.58
163;BME280;3946;48.958;8.284;2023-05-14T11:14:41;100060.69;;;20.64;58.03
163;BME280;3946;48.958;8.284;2023-05-14T11:17:26;100043.34;;;21.24;56.88
163;BME280;3946;48.958;8.284;2023-05-14T11:20:13;100012.78;;;21.76;55.36
163;BME280;3946;48.958;8.284;2023-05-14T11:22:59;99981.88;;;22.37;54.83
163;BME280;3946;48.958;8.284;2023-05-14T11:25:44;99961.59;;;22.73;53.23
163;BME280;3946;48.958;8.284;2023-05-14T11:28:29;99926.25;;;22.74;51.88
163;BME280;3946;48.958;8.284;2023-05-14T11:31:14;99924.06;;;22.27;51.56
163;BME280;3946;48.958;8.284;2023-05-14T11:33:59;99932.44;;;22.01;52.04
163;BME280;3946;48.958;8.284;2023-05-14T11:36:47;99921.13;;;22.51;51.04
163;BME280;3946;48.958;8.284;2023-05-14T11:39:33;99929.19;;;21.61;51.47
163;BME280;3946;48.958;8.284;2023-05-14T11:42:19;99935.59;;;21.44;52.02
163;BME280;3946;48.958;8.284;2023-05-14T11:45:05;99930.28;;;21.67;51.67
163;BME280;3946;48.958;8.284;2023-05-14T11:47:50;99971.00;;;21.50;53.10
163;BME280;3946;48.958;8.284;2023-05-14T11:50:36;100008.19;;;21.32;54.60
163;BME280;3946;48.958;8.284;2023-05-14T11:53:25;100000.13;;;21.56;54.64
163;BME280;3946;48.958;8.284;2023-05-14T11:56:10;99991.91;;;20.98;54.26
163;BME280;3946;48.958;8.284;2023-05-14T11:58:56;99983.56;;;21.25;54.20
163;BME280;3946;48.958;8.284;2023-05-14T12:01:42;99913.56;;;21.22;52.33
163;BME280;3946;48.958;8.284;2023-05-14T12:04:28;99986.22;;;21.77;54.34
163;BME280;3946;48.958;8.284;2023-05-14T12:07:14;99930.00;;;21.62;52.38
163;BME280;3946;48.958;8.284;2023-05-14T12:10:01;99977.09;;;21.88;54.26
163;BME280;3946;48.958;8.284;2023-05-14T12:12:47;99943.38;;;21.60;53.61
163;BME280;3946;48.958;8.284;2023-05-14T12:15:32;99914.97;;;22.00;52.00
163;BME280;3946;48.958;8.284;2023-05-14T12:18:17;99958.31;;;22.06;53.53
163;BME280;3946;48.958;8.284;2023-05-14T12:21:04;99954.00;;;21.29;53.76
163;BME280;3946;48.958;8.284;2023-05-14T12:23:58;99960.34;;;20.89;53.70
163;BME280;3946;48.958;8.284;2023-05-14T12:26:45;99980.13;;;21.77;54.60
163;BME280;3946;48.958;8.284;2023-05-14T12:29:33;99956.00;;;21.27;53.94
163;BME280;3946;48.958;8.284;2023-05-14T12:32:31;99981.13;;;21.38;54.56
163;BME280;3946;48.958;8.284;2023-05-14T12:35:17;99959.38;;;21.13;54.07
163;BME280;3946;48.958;8.284;2023-05-14T12:38:03;99988.06;;;21.08;55.10
163;BME280;3946;48.958;8.284;2023-05-14T12:40:49;99982.41;;;21.65;55.07
163;BME280;3946;48.958;8.284;2023-05-14T12:43:34;99937.16;;;21.91;53.95
163;BME280;3946;48.958;8.284;2023-05-14T12:46:20;99932.44;;;22.01;53.50
163;BME280;3946;48.958;8.284;2023-05-14T12:49:06;99932.25;;;21.88;53.32
163;BME280;3946;48.958;8.284;2023-05-14T12:51:52;99956.38;;;22.44;54.33
163;BME280;3946;48.958;8.284;2023-05-14T12:54:37;99986.22;;;22.00;55.61
163;BME280;3946;48.958;8.284;2023-05-14T12:57:26;99988.59;;;21.72;56.09
163;BME280;3946;48.958;8.284;2023-05-14T13:00:16;100000.88;;;21.19;56.30
163;BME280;3946;48.958;8.284;2023-05-14T13:03:01;99977.28;;;21.26;55.36
163;BME280;3946;48.958;8.284;2023-05-14T13:05:49;99997.53;;;21.48;56.49
163;BME280;3946;48.958;8.284;2023-05-14T13:08:34;99989.09;;;21.30;56.18
163;BME280;3946;48.958;8.284;2023-05-14T13:11:19;99977.63;;;21.98;56.16
163;BME280;3946;48.958;8.284;2023-05-14T13:14:04;99935.88;;;21.72;54.88
163;BME280;3946;48.958;8.284;2023-05-14T13:16:49;99954.06;;;21.82;55.06
163;BME280;3946;48.958;8.284;2023-05-14T13:19:34;99937.88;;;21.47;54.75
163;BME280;3946;48.958;8.284;2023-05-14T13:22:23;99955.16;;;21.73;55.24
163;BME280;3946;48.958;8.284;2023-05-14T13:25:09;99952.09;;;22.13;55.10
163;BME280;3946;48.958;8.284;2023-05-14T13:27:54;99909.97;;;22.34;53.41
163;BME280;3946;48.958;8.284;2023-05-14T13:30:39;99903.13;;;21.96;53.15
163;BME280;3946;48.958;8.284;2023-05-14T13:33:23;99914.91;;;21.56;53.63
163;BME280;3946;48.958;8.284;2023-05-14T13:36:09;99919.56;;;21.54;54.25
163;BME280;3946;48.958;8.284;2023-05-14T13:38:56;99916.69;;;21.18;54.32
163;BME280;3946;48.958;8.284;2023-05-14T13:41:40;99902.44;;;21.50;54.15
163;BME280;3946;48.958;8.284;2023-05-14T13:44:26;99892.31;;;21.91;53.67
163;BME280;3946;48.958;8.284;2023-05-14T13:47:11;99880.66;;;21.71;53.58
163;BME280;3946;48.958;8.284;2023-05-14T13:49:56;99855.00;;;22.09;53.07
163;BME280;3946;48.958;8.284;2023-05-14T13:52:41;99842.03;;;22.07;52.74
163;BME280;3946;48.958;8.284;2023-05-14T13:55:27;99862.66;;;21.89;53.39
163;BME280;3946;48.958;8.284;2023-05-14T13:58:12;99887.09;;;21.68;54.23
163;BME280;3946;48.958;8.284;2023-05-14T14:00:57;99854.09;;;21.72;53.19
163;BME280;3946;48.958;8.284;2023-05-14T14:03:42;99865.91;;;21.61;53.73
163;BME280;3946;48.958;8.284;2023-05-14T14:06:29;99865.88;;;21.32;54.11
163;BME280;3946;48.958;8.284;2023-05-14T14:09:14;99870.00;;;21.64;53.98
163;BME280;3946;48.958;8.284;2023-05-14T14:12:00;99847.72;;;21.81;53.49
163;BME280;3946;48.958;8.284;2023-05-14T14:14:46;99858.63;;;21.78;53.54
163;BME280;3946;48.958;8.284;2023-05-14T14:17:31;99820.56;;;22.31;52.28
163;BME280;3946;48.958;8.284;2023-05-14T14:20:17;99819.38;;;22.34;52.26
163;BME280;3946;48.958;8.284;2023-05-14T14:23:02;99807.13;;;22.69;51.90
163;BME280;3946;48.958;8.284;2023-05-14T14:25:47;99788.25;;;22.29;51.17
163;BME280;3946;48.958;8.284;2023-05-14T14:28:33;99792.13;;;22.12;51.57
163;BME280;3946;48.958;8.284;2023-05-14T14:31:18;99794.91;;;22.25;51.57
163;BME280;3946;48.958;8.284;2023-05-14T14:34:03;99818.75;;;22.32;52.68
163;BME280;3946;48.958;8.284;2023-05-14T14:36:49;99805.94;;;22.14;51.83
163;BME280;3946;48.958;8.284;2023-05-14T14:39:34;99783.16;;;22.28;51.00
163;BME280;3946;48.958;8.284;2023-05-14T14:42:19;99810.63;;;22.33;52.16
163;BME280;3946;48.958;8.284;2023-05-14T14:45:05;99800.34;;;22.39;51.83
163;BME280;3946;48.958;8.284;2023-05-14T14:47:51;99787.63;;;22.27;51.10
163;BME280;3946;48.958;8.284;2023-05-14T14:50:56;99793.84;;;22.41;51.42
163;BME280;3946;48.958;8.284;2023-05-14T14:53:41;99807.69;;;22.43;52.09
163;BME280;3946;48.958;8.284;2023-05-14T14:56:26;99804.34;;;21.84;52.33
163;BME280;3946;48.958;8.284;2023-05-14T14:59:11;99814.41;;;22.10;52.79
163;BME280;3946;48.958;8.284;2023-05-14T15:01:57;99779.69;;;21.77;51.24